Denholme, United Kingdom
Current Conditions -  °F | °C
As of 6:20 PM on Wednesday 28 Jan 2015 (Local Time) from EGNM Reporting Station
Snow Showers Snow Showers  
Wind Chill: 22°   Ceiling: Unl
Heat Index: 34°   Visibility: 5mi
Dew Point: 28°   Wind: 23mph
Humidity: 81%   Direction: 270°W
Pressure: 29.35"   Gusts: 36mph
Location:  53.8°N, 1.9°W
Report Text: EGNM 281820Z 27020G31KT 8000 -SHSN FEW008 SCT013CB 01/M02 Q0994
Loading
Personal Weather Stations






























Interactive Weather Map New forecast layout! Learn more

10-Day Weather Forecast

Advertisements
Track Severe Weather on mobile